Time;durP1;ratioP1;P1;durP2;ratioP2;P2;SDS_P1;SDS_P2;PMS_P1;PMS_P2;Temp;Humidity;BMP_temperature;BMP_pressure;BME280_temperature;BME280_humidity;BME280_pressure;Samples;Min_cycle;Max_cycle;Signal;HPM_P1;HPM_P2
2022/08/01 00:01:56;;;;;;;1.90;1.80;;;24.70;52.70;;;;;;4983205;28;20201;-74
2022/08/01 00:04:24;;;;;;;2.30;2.10;;;24.60;52.70;;;;;;4998741;28;20236;-74
2022/08/01 00:06:50;;;;;;;1.88;1.73;;;24.60;52.70;;;;;;4998807;28;20220;-75
2022/08/01 00:09:18;;;;;;;2.00;1.90;;;24.60;52.70;;;;;;4982635;28;20197;-73
2022/08/01 00:11:45;;;;;;;1.95;1.85;;;24.60;53.30;;;;;;5016245;28;20212;-74
2022/08/01 00:14:12;;;;;;;2.15;2.00;;;24.60;52.70;;;;;;4998550;28;20259;-73
2022/08/01 00:16:39;;;;;;;2.00;1.90;;;24.60;52.80;;;;;;5016076;28;20220;-74
2022/08/01 00:19:08;;;;;;;2.00;1.90;;;24.60;52.80;;;;;;4998595;28;20616;-74
2022/08/01 00:21:35;;;;;;;3.30;2.05;;;24.50;52.70;;;;;;4998533;28;20739;-75
2022/08/01 00:24:02;;;;;;;2.10;2.00;;;24.50;52.70;;;;;;4999104;28;20255;-73
2022/08/01 00:26:29;;;;;;;2.20;2.00;;;24.50;52.90;;;;;;4998931;28;20216;-74
2022/08/01 00:28:56;;;;;;;2.58;2.15;;;24.50;52.80;;;;;;4999419;28;20204;-75
2022/08/01 00:31:23;;;;;;;2.10;2.00;;;24.50;52.90;;;;;;4998658;28;20640;-73
2022/08/01 00:33:50;;;;;;;2.20;2.00;;;24.50;53.00;;;;;;4998869;28;20223;-75
2022/08/01 00:36:18;;;;;;;2.88;2.30;;;24.50;52.90;;;;;;4998323;28;20224;-74
2022/08/01 00:38:45;;;;;;;2.50;2.20;;;24.50;52.90;;;;;;4998192;28;20307;-73
2022/08/01 00:41:12;;;;;;;2.35;2.08;;;24.50;53.10;;;;;;4998337;28;20299;-75
2022/08/01 00:43:39;;;;;;;2.20;2.03;;;24.50;53.00;;;;;;4982419;28;20651;-75
2022/08/01 00:46:06;;;;;;;3.40;2.20;;;24.40;52.90;;;;;;4998003;28;20221;-75
2022/08/01 00:48:33;;;;;;;2.30;2.20;;;24.40;53.00;;;;;;4998200;28;20196;-74
2022/08/01 00:51:00;;;;;;;2.50;2.30;;;24.40;53.00;;;;;;4998695;28;20201;-75
2022/08/01 00:53:29;;;;;;;2.20;2.00;;;24.40;53.00;;;;;;4998388;28;20204;-73
2022/08/01 00:55:56;;;;;;;2.30;2.10;;;24.40;53.10;;;;;;4998116;28;20622;-75
2022/08/01 00:58:23;;;;;;;2.42;2.22;;;24.40;53.10;;;;;;4998079;28;20206;-73
2022/08/01 01:00:50;;;;;;;2.25;2.15;;;24.40;53.20;;;;;;4998194;28;20205;-75
2022/08/01 01:03:17;;;;;;;2.45;2.25;;;24.40;53.10;;;;;;4965836;28;20200;-74
2022/08/01 01:05:49;;;;;;;2.47;2.28;;;24.40;53.10;;;;;;5015197;28;20189;-73
2022/08/01 01:08:20;;;;;;;2.50;2.30;;;24.30;53.10;;;;;;4997064;28;20540;-74
2022/08/01 01:10:52;;;;;;;2.35;2.15;;;24.30;53.10;;;;;;4997767;28;20622;-75
2022/08/01 01:13:21;;;;;;;2.22;2.08;;;24.30;53.10;;;;;;4997539;28;20192;-73
2022/08/01 01:15:50;;;;;;;2.40;2.20;;;24.30;53.10;;;;;;4997626;28;20311;-74
2022/08/01 01:18:20;;;;;;;2.30;2.20;;;24.30;53.20;;;;;;4981498;28;20201;-74
2022/08/01 01:20:49;;;;;;;2.78;2.20;;;24.30;53.20;;;;;;4997616;28;20197;-75
2022/08/01 01:23:25;;;;;;;2.38;2.17;;;24.30;53.10;;;;;;4997370;28;20208;-74
2022/08/01 01:26:02;;;;;;;2.22;2.08;;;24.30;53.30;;;;;;4997929;28;20251;-75
2022/08/01 01:28:35;;;;;;;2.80;2.50;;;24.30;53.30;;;;;;4997614;28;20247;-74
2022/08/01 01:31:03;;;;;;;2.75;2.55;;;24.30;53.20;;;;;;4998268;28;20189;-75
2022/08/01 01:33:31;;;;;;;2.50;2.30;;;24.30;53.20;;;;;;5014734;28;20248;-75
2022/08/01 01:36:00;;;;;;;2.45;2.35;;;24.20;53.10;;;;;;4997277;28;20217;-75
2022/08/01 01:38:29;;;;;;;2.47;2.28;;;24.30;53.20;;;;;;4996988;28;20243;-74
2022/08/01 01:40:56;;;;;;;2.45;2.25;;;24.20;53.10;;;;;;4997001;28;20196;-74
2022/08/01 01:43:23;;;;;;;2.75;2.50;;;24.20;53.20;;;;;;4997335;28;20201;-75
2022/08/01 01:45:50;;;;;;;2.20;2.10;;;24.20;53.20;;;;;;4981056;28;20703;-74
2022/08/01 01:48:20;;;;;;;2.95;2.20;;;24.20;53.30;;;;;;4981369;28;20204;-73
2022/08/01 01:50:48;;;;;;;2.67;2.47;;;24.20;53.30;;;;;;4998175;28;20197;-75
2022/08/01 01:53:19;;;;;;;2.30;2.10;;;24.20;53.30;;;;;;4999085;28;20204;-73
2022/08/01 01:55:47;;;;;;;2.40;2.20;;;24.20;53.30;;;;;;4999610;28;20216;-73
2022/08/01 01:58:14;;;;;;;3.47;2.10;;;24.20;53.30;;;;;;4999812;28;20208;-75
2022/08/01 02:00:41;;;;;;;2.20;2.10;;;24.20;53.40;;;;;;4997345;28;20266;-74
2022/08/01 02:03:09;;;;;;;2.20;2.00;;;24.20;53.30;;;;;;4980797;28;20197;-75
2022/08/01 02:05:38;;;;;;;2.60;2.40;;;24.20;53.40;;;;;;4996699;28;20235;-75
2022/08/01 02:08:05;;;;;;;2.20;2.00;;;24.20;53.50;;;;;;4996443;28;20313;-74
2022/08/01 02:10:33;;;;;;;2.38;2.03;;;24.20;53.40;;;;;;4996548;28;20284;-75
2022/08/01 02:13:00;;;;;;;2.40;2.30;;;24.20;54.10;;;;;;4996511;28;20204;-75
2022/08/01 02:15:28;;;;;;;2.50;2.20;;;24.10;53.50;;;;;;4996478;28;20675;-75
2022/08/01 02:17:55;;;;;;;2.70;2.50;;;24.10;53.50;;;;;;4996353;28;20207;-74
2022/08/01 02:20:22;;;;;;;2.40;2.20;;;24.10;53.40;;;;;;4996471;28;20255;-74
2022/08/01 02:22:52;;;;;;;2.22;2.03;;;24.10;53.30;;;;;;4996604;28;20602;-74
2022/08/01 02:25:21;;;;;;;2.25;2.00;;;24.20;53.40;;;;;;4996406;28;20241;-75
2022/08/01 02:27:53;;;;;;;2.28;2.13;;;24.10;53.30;;;;;;5014064;28;20260;-75
2022/08/01 02:30:20;;;;;;;2.53;2.30;;;24.10;53.30;;;;;;4996709;28;20196;-74
2022/08/01 02:32:49;;;;;;;2.17;2.05;;;24.10;53.70;;;;;;4996440;28;20201;-73
2022/08/01 02:35:20;;;;;;;2.50;2.30;;;24.10;53.30;;;;;;5014156;28;20243;-75
2022/08/01 02:37:47;;;;;;;2.45;2.25;;;24.10;53.50;;;;;;4996325;28;20695;-75
2022/08/01 02:40:17;;;;;;;2.33;2.22;;;24.10;53.30;;;;;;4996231;28;20212;-74
2022/08/01 02:42:45;;;;;;;2.22;2.13;;;24.10;53.40;;;;;;4996206;28;20279;-74
2022/08/01 02:45:12;;;;;;;2.65;2.45;;;24.10;53.40;;;;;;5013534;28;20196;-75
2022/08/01 02:47:39;;;;;;;2.78;2.58;;;24.10;53.30;;;;;;4996184;28;20319;-73
2022/08/01 02:50:08;;;;;;;2.25;2.15;;;24.10;53.30;;;;;;4996518;28;20189;-74
2022/08/01 02:52:35;;;;;;;2.58;2.40;;;24.10;53.40;;;;;;4996209;28;20246;-75
2022/08/01 02:55:03;;;;;;;2.60;2.35;;;24.10;53.40;;;;;;4996226;28;20201;-74
2022/08/01 02:57:31;;;;;;;2.50;2.30;;;24.10;53.50;;;;;;4979908;28;20217;-73
2022/08/01 02:59:58;;;;;;;2.42;2.22;;;24.00;53.40;;;;;;4996334;28;20227;-73
2022/08/01 03:02:25;;;;;;;2.88;2.30;;;24.00;53.30;;;;;;4996207;28;20259;-74
2022/08/01 03:04:52;;;;;;;2.75;2.55;;;24.00;53.40;;;;;;4996397;28;20197;-75
2022/08/01 03:07:19;;;;;;;2.92;2.40;;;24.00;53.40;;;;;;4996130;28;20593;-73
2022/08/01 03:09:46;;;;;;;3.00;2.33;;;24.00;53.30;;;;;;5013705;28;20184;-75
2022/08/01 03:12:15;;;;;;;3.15;2.67;;;24.00;53.40;;;;;;4996080;28;20196;-73
2022/08/01 03:14:44;;;;;;;3.00;2.28;;;24.00;53.40;;;;;;4996106;28;20219;-74
2022/08/01 03:17:12;;;;;;;3.08;2.40;;;24.00;53.60;;;;;;4995922;28;20282;-73
2022/08/01 03:19:39;;;;;;;2.50;2.30;;;24.00;53.50;;;;;;4995815;28;20279;-73
2022/08/01 03:22:07;;;;;;;3.45;2.60;;;24.00;53.50;;;;;;4995913;28;20209;-73
2022/08/01 03:24:34;;;;;;;2.63;2.40;;;24.00;53.50;;;;;;4996001;28;20208;-75
2022/08/01 03:27:01;;;;;;;2.70;2.50;;;24.00;53.40;;;;;;4995956;28;20248;-74
2022/08/01 03:29:29;;;;;;;2.70;2.50;;;24.00;53.40;;;;;;4995924;28;20215;-74
2022/08/01 03:32:18;;;;;;;2.60;2.40;;;24.00;53.30;;;;;;5017085;28;20192;-74
2022/08/01 03:34:46;;;;;;;3.00;2.70;;;24.10;53.30;;;;;;4999458;28;20196;-75
2022/08/01 03:37:15;;;;;;;3.13;2.70;;;24.10;53.30;;;;;;4999387;28;20232;-74
2022/08/01 03:39:46;;;;;;;2.63;2.42;;;24.10;53.20;;;;;;4999455;28;20252;-74
2022/08/01 03:42:15;;;;;;;2.78;2.58;;;24.20;53.30;;;;;;4999191;28;20262;-75
2022/08/01 03:44:42;;;;;;;3.05;2.50;;;24.20;53.30;;;;;;4999872;28;20221;-75
2022/08/01 03:47:09;;;;;;;2.70;2.50;;;24.20;53.30;;;;;;4999122;28;20283;-74
2022/08/01 03:49:41;;;;;;;2.70;2.50;;;24.20;53.30;;;;;;4999100;28;20193;-73
2022/08/01 03:52:09;;;;;;;2.42;2.22;;;24.20;53.20;;;;;;4999252;28;20224;-73
2022/08/01 03:54:37;;;;;;;4.28;2.50;;;24.20;53.30;;;;;;4999106;28;20220;-75
2022/08/01 03:57:04;;;;;;;2.58;2.38;;;24.20;53.30;;;;;;4999934;28;20231;-74
2022/08/01 03:59:31;;;;;;;2.65;2.45;;;24.10;53.80;;;;;;4998894;28;20311;-74
2022/08/01 04:01:58;;;;;;;2.75;2.55;;;24.20;53.30;;;;;;4999005;28;20240;-75
2022/08/01 04:04:25;;;;;;;2.85;2.60;;;24.20;53.30;;;;;;4983054;28;20201;-74
2022/08/01 04:06:54;;;;;;;2.15;2.05;;;24.20;53.30;;;;;;4998829;28;20227;-73
2022/08/01 04:09:22;;;;;;;2.90;2.47;;;24.10;53.20;;;;;;4998793;28;20278;-74
2022/08/01 04:11:48;;;;;;;3.13;2.58;;;24.10;53.10;;;;;;4999621;28;20205;-73
2022/08/01 04:14:16;;;;;;;2.78;2.58;;;24.20;53.30;;;;;;4998838;28;20223;-74
2022/08/01 04:16:42;;;;;;;2.45;2.25;;;24.10;53.20;;;;;;4999040;28;20678;-74
2022/08/01 04:19:10;;;;;;;2.60;2.40;;;24.10;53.30;;;;;;4982417;28;20196;-75
2022/08/01 04:21:37;;;;;;;2.75;2.55;;;24.10;53.20;;;;;;4998592;28;20200;-74
2022/08/01 04:24:08;;;;;;;3.33;2.78;;;24.10;53.30;;;;;;4998419;28;20212;-75
2022/08/01 04:26:35;;;;;;;2.80;2.35;;;24.10;53.30;;;;;;4998552;28;20691;-73
2022/08/01 04:29:04;;;;;;;3.13;2.78;;;24.10;53.40;;;;;;5015880;28;20192;-73
2022/08/01 04:31:31;;;;;;;2.60;2.40;;;24.10;53.30;;;;;;4998502;28;20192;-73
2022/08/01 04:33:59;;;;;;;2.65;2.45;;;24.20;53.40;;;;;;4998548;28;20197;-75
2022/08/01 04:36:26;;;;;;;2.75;2.55;;;24.20;53.50;;;;;;4998832;28;20312;-74
2022/08/01 04:38:55;;;;;;;2.58;2.38;;;24.20;53.40;;;;;;4998678;28;20201;-75
2022/08/01 04:41:24;;;;;;;2.63;2.42;;;24.20;53.50;;;;;;4997667;28;20221;-75
2022/08/01 04:43:52;;;;;;;3.65;2.85;;;24.20;54.60;;;;;;4998006;28;20197;-74
2022/08/01 04:46:19;;;;;;;3.75;2.50;;;23.90;55.40;;;;;;4998298;28;20235;-73
2022/08/01 04:48:46;;;;;;;2.80;2.50;;;23.80;55.50;;;;;;4997887;28;20196;-73
2022/08/01 04:51:14;;;;;;;3.95;2.60;;;23.70;55.90;;;;;;4998054;28;20546;-74
2022/08/01 04:53:42;;;;;;;3.15;2.53;;;23.60;56.10;;;;;;4997671;28;20199;-73
2022/08/01 04:56:09;;;;;;;2.85;2.58;;;23.50;56.40;;;;;;4998174;28;20229;-73
2022/08/01 04:58:37;;;;;;;2.83;2.63;;;23.50;56.40;;;;;;4997911;28;20196;-74
2022/08/01 05:01:04;;;;;;;2.90;2.60;;;23.50;56.40;;;;;;4998141;28;20213;-73
2022/08/01 05:03:31;;;;;;;3.33;2.72;;;23.70;56.60;;;;;;4997806;28;20217;-74
2022/08/01 05:05:58;;;;;;;2.95;2.70;;;23.80;56.30;;;;;;4997954;28;20283;-74
2022/08/01 05:08:24;;;;;;;3.78;2.50;;;23.80;56.20;;;;;;4997844;28;20210;-74
2022/08/01 05:10:52;;;;;;;4.40;2.95;;;23.90;56.00;;;;;;4997860;28;20201;-74
2022/08/01 05:13:19;;;;;;;4.10;2.58;;;24.00;55.50;;;;;;4997753;28;20552;-74
2022/08/01 05:15:48;;;;;;;2.65;2.45;;;24.20;55.10;;;;;;4981897;28;20216;-73
2022/08/01 05:18:16;;;;;;;2.50;2.30;;;24.30;54.70;;;;;;4998139;28;20207;-73
2022/08/01 05:20:42;;;;;;;2.47;2.28;;;24.30;54.30;;;;;;4998090;28;20227;-73
2022/08/01 05:23:09;;;;;;;2.45;2.25;;;24.40;54.20;;;;;;4998413;28;20204;-73
2022/08/01 05:25:38;;;;;;;2.58;2.38;;;24.50;54.00;;;;;;4997747;28;20197;-74
2022/08/01 05:28:05;;;;;;;2.58;2.38;;;24.50;54.00;;;;;;4998101;28;20224;-73
2022/08/01 05:30:32;;;;;;;2.53;2.33;;;24.70;54.00;;;;;;4998418;28;20200;-73
2022/08/01 05:33:01;;;;;;;2.53;2.10;;;24.90;53.50;;;;;;4998762;28;20219;-73
2022/08/01 05:35:28;;;;;;;2.58;2.20;;;25.20;53.10;;;;;;5000088;28;20208;-74
2022/08/01 05:37:54;;;;;;;2.50;2.10;;;25.40;52.40;;;;;;4998159;28;20212;-74
2022/08/01 05:40:22;;;;;;;2.45;2.10;;;25.70;51.70;;;;;;4997869;28;20217;-74
2022/08/01 05:42:48;;;;;;;2.70;2.30;;;25.90;51.10;;;;;;4997572;28;20265;-74
2022/08/01 05:45:16;;;;;;;3.15;2.33;;;26.10;50.60;;;;;;4997568;28;20206;-74
2022/08/01 05:47:42;;;;;;;2.63;2.25;;;26.20;50.50;;;;;;4981534;28;20224;-74
2022/08/01 05:50:12;;;;;;;3.42;2.47;;;26.40;50.10;;;;;;4997574;28;20368;-74
2022/08/01 05:52:40;;;;;;;2.20;2.00;;;26.50;49.60;;;;;;4996725;28;20258;-74
2022/08/01 05:55:09;;;;;;;2.40;2.20;;;26.70;49.30;;;;;;4997183;28;20201;-74
2022/08/01 05:57:35;;;;;;;2.50;2.30;;;26.80;49.00;;;;;;4996960;28;20220;-74
2022/08/01 06:00:02;;;;;;;2.30;2.10;;;26.90;48.80;;;;;;5014824;28;20209;-74
2022/08/01 06:02:42;;;;;;;2.85;2.30;;;26.90;48.70;;;;;;5014234;28;20300;-74
2022/08/01 06:05:10;;;;;;;2.42;2.20;;;27.00;48.70;;;;;;4997647;28;20269;-74
2022/08/01 06:07:38;;;;;;;2.40;1.95;;;27.10;48.40;;;;;;4997183;28;20216;-72
2022/08/01 06:10:07;;;;;;;2.78;2.00;;;27.20;48.20;;;;;;4996777;28;20200;-72
2022/08/01 06:12:34;;;;;;;3.38;2.45;;;27.20;48.00;;;;;;4980625;28;20196;-74
2022/08/01 06:15:01;;;;;;;2.15;2.00;;;27.30;47.90;;;;;;4997137;28;20200;-74
2022/08/01 06:17:28;;;;;;;2.53;2.10;;;27.40;47.80;;;;;;4998203;28;20641;-74
2022/08/01 06:19:55;;;;;;;2.20;2.00;;;27.40;47.70;;;;;;4997776;28;20196;-74
2022/08/01 06:22:24;;;;;;;2.40;2.17;;;27.50;47.50;;;;;;4997049;28;20199;-74
2022/08/01 06:24:50;;;;;;;2.28;2.08;;;27.60;47.30;;;;;;4996884;28;20270;-74
2022/08/01 06:27:17;;;;;;;2.05;1.95;;;27.70;47.10;;;;;;4981062;28;20220;-74
2022/08/01 06:29:44;;;;;;;2.65;2.08;;;27.80;47.00;;;;;;4980516;28;20200;-74
2022/08/01 06:32:12;;;;;;;2.20;2.00;;;27.90;46.90;;;;;;4996541;28;20678;-74
2022/08/01 06:34:39;;;;;;;2.05;1.90;;;27.90;46.70;;;;;;4996431;28;20593;-74
2022/08/01 06:37:06;;;;;;;2.47;2.28;;;28.00;46.60;;;;;;4996763;28;20224;-74
2022/08/01 06:39:34;;;;;;;2.35;2.08;;;28.10;46.40;;;;;;4996434;28;20226;-74
2022/08/01 06:42:01;;;;;;;2.20;2.00;;;28.10;46.20;;;;;;4996759;28;20231;-74
2022/08/01 06:44:27;;;;;;;2.38;2.13;;;28.20;46.10;;;;;;4996705;28;20207;-74
2022/08/01 06:46:54;;;;;;;2.20;2.00;;;28.30;45.90;;;;;;4996304;28;20247;-74
2022/08/01 06:49:21;;;;;;;2.60;2.05;;;28.30;45.70;;;;;;4996227;28;20658;-74
2022/08/01 06:51:48;;;;;;;1.83;1.73;;;28.40;45.60;;;;;;4996614;28;20192;-74
2022/08/01 06:54:15;;;;;;;2.33;1.95;;;28.50;45.50;;;;;;4964367;28;20223;-74
2022/08/01 06:56:44;;;;;;;1.95;1.85;;;28.60;45.30;;;;;;4996120;28;20744;-74
2022/08/01 06:59:11;;;;;;;2.22;2.03;;;28.60;45.10;;;;;;4996263;28;20210;-74
2022/08/01 07:01:38;;;;;;;1.90;1.80;;;28.70;45.10;;;;;;4996389;28;20227;-77
2022/08/01 07:04:05;;;;;;;2.20;2.00;;;28.60;45.10;;;;;;5014136;28;20192;-74
2022/08/01 07:06:32;;;;;;;2.13;2.03;;;28.70;45.00;;;;;;4999385;28;20216;-74
2022/08/01 07:09:00;;;;;;;1.80;1.70;;;28.70;44.90;;;;;;4999982;28;20204;-74
2022/08/01 07:11:27;;;;;;;1.92;1.83;;;28.80;44.90;;;;;;5000369;28;20189;-74
2022/08/01 07:13:56;;;;;;;2.03;1.83;;;28.80;44.70;;;;;;5000040;28;20655;-74
2022/08/01 07:16:23;;;;;;;2.03;1.80;;;28.90;44.70;;;;;;4999930;28;20226;-74
2022/08/01 07:18:51;;;;;;;2.05;1.90;;;28.90;44.60;;;;;;5017465;28;20677;-74
2022/08/01 07:21:18;;;;;;;2.20;2.00;;;28.90;44.40;;;;;;4984658;28;20219;-74
2022/08/01 07:23:45;;;;;;;1.80;1.67;;;29.00;44.20;;;;;;4999842;28;20659;-74
2022/08/01 07:26:13;;;;;;;1.80;1.70;;;29.10;44.10;;;;;;4999740;28;20226;-74
2022/08/01 07:28:40;;;;;;;2.00;1.60;;;29.10;44.00;;;;;;5000045;28;20196;-74
2022/08/01 07:31:08;;;;;;;2.50;2.00;;;29.10;44.10;;;;;;5000093;28;20196;-74
2022/08/01 07:33:35;;;;;;;2.20;2.00;;;29.00;44.20;;;;;;4999580;28;20204;-75
2022/08/01 07:36:03;;;;;;;2.58;1.90;;;28.90;44.40;;;;;;4999543;28;20223;-74
2022/08/01 07:38:30;;;;;;;1.98;1.80;;;28.70;44.80;;;;;;4999426;28;20196;-74
2022/08/01 07:40:57;;;;;;;1.80;1.70;;;28.50;45.10;;;;;;4999481;28;20315;-74
2022/08/01 07:43:24;;;;;;;1.98;1.80;;;28.40;45.30;;;;;;4999734;28;20246;-74
2022/08/01 07:45:52;;;;;;;1.83;1.73;;;28.30;45.50;;;;;;4999413;28;20224;-74
2022/08/01 07:48:23;;;;;;;1.90;1.80;;;28.20;45.70;;;;;;4999280;28;20196;-74
2022/08/01 07:50:50;;;;;;;2.17;1.85;;;28.20;45.90;;;;;;4999250;28;20291;-74
2022/08/01 07:53:17;;;;;;;1.67;1.58;;;28.10;46.20;;;;;;4999431;28;20192;-74
2022/08/01 07:55:44;;;;;;;2.05;1.80;;;28.00;46.20;;;;;;4999011;28;20200;-74
2022/08/01 07:58:11;;;;;;;1.63;1.52;;;28.10;46.00;;;;;;5016720;28;20203;-74
2022/08/01 08:00:39;;;;;;;1.85;1.70;;;28.40;45.60;;;;;;4999031;28;20717;-74
2022/08/01 08:03:06;;;;;;;2.92;1.90;;;28.60;45.00;;;;;;4999152;28;20232;-74
2022/08/01 08:05:35;;;;;;;1.67;1.58;;;28.70;44.70;;;;;;4998935;28;20211;-74
2022/08/01 08:08:02;;;;;;;2.55;1.92;;;28.80;44.60;;;;;;4982853;28;20195;-74
2022/08/01 08:10:29;;;;;;;1.85;1.75;;;28.80;44.70;;;;;;4998831;28;20207;-74
2022/08/01 08:12:56;;;;;;;2.00;1.90;;;28.60;44.90;;;;;;4998925;28;20242;-74
2022/08/01 08:15:23;;;;;;;1.65;1.55;;;28.50;45.70;;;;;;4998894;28;20208;-74
2022/08/01 08:17:49;;;;;;;1.88;1.77;;;28.50;45.20;;;;;;4998596;28;20220;-74
2022/08/01 08:20:16;;;;;;;1.90;1.80;;;28.50;45.10;;;;;;4998881;28;20232;-74
2022/08/01 08:22:45;;;;;;;1.65;1.55;;;28.50;45.20;;;;;;4982980;28;20223;-74
2022/08/01 08:25:12;;;;;;;1.92;1.70;;;28.50;45.20;;;;;;4998606;28;20211;-74
2022/08/01 08:27:39;;;;;;;2.05;1.80;;;28.40;45.40;;;;;;4998834;28;20227;-74
2022/08/01 08:30:08;;;;;;;1.70;1.60;;;28.30;45.50;;;;;;4998513;28;20291;-74
2022/08/01 08:32:35;;;;;;;1.80;1.70;;;28.20;45.70;;;;;;4998327;28;20291;-74
2022/08/01 08:35:02;;;;;;;1.73;1.63;;;28.10;45.80;;;;;;4998999;28;20239;-74
2022/08/01 08:37:29;;;;;;;1.98;1.88;;;28.10;45.90;;;;;;4998645;28;20215;-74
2022/08/01 08:39:57;;;;;;;1.70;1.60;;;28.20;45.90;;;;;;4998773;28;20615;-74
2022/08/01 08:42:24;;;;;;;1.50;1.40;;;28.20;45.80;;;;;;4982371;28;20227;-74
2022/08/01 08:44:51;;;;;;;1.90;1.80;;;28.20;45.80;;;;;;4998394;28;20200;-74
2022/08/01 08:47:18;;;;;;;1.83;1.73;;;28.30;45.70;;;;;;4998876;28;20203;-74
2022/08/01 08:49:45;;;;;;;1.83;1.73;;;28.40;45.40;;;;;;4998479;28;20655;-74
2022/08/01 08:52:12;;;;;;;1.58;1.48;;;28.40;45.20;;;;;;4998772;28;20196;-74
2022/08/01 08:54:39;;;;;;;1.60;1.50;;;28.40;45.20;;;;;;4998598;28;20200;-74
2022/08/01 08:57:10;;;;;;;1.90;1.80;;;28.40;45.30;;;;;;4998190;28;20290;-74
2022/08/01 08:59:37;;;;;;;1.80;1.70;;;28.40;45.40;;;;;;4997732;28;20242;-74
2022/08/01 09:02:05;;;;;;;1.60;1.50;;;28.30;45.50;;;;;;4998060;28;20255;-74
2022/08/01 09:04:32;;;;;;;1.60;1.50;;;28.20;45.70;;;;;;4997881;28;20650;-74
2022/08/01 09:06:59;;;;;;;1.80;1.70;;;28.20;45.70;;;;;;4998065;28;20286;-74
2022/08/01 09:09:27;;;;;;;1.60;1.50;;;28.30;45.70;;;;;;4997800;28;20204;-74
2022/08/01 09:11:55;;;;;;;1.60;1.50;;;28.30;45.70;;;;;;4997695;28;20231;-74
2022/08/01 09:14:29;;;;;;;1.80;1.70;;;28.30;45.70;;;;;;4998296;28;20204;-74
2022/08/01 09:17:00;;;;;;;1.77;1.67;;;28.30;45.70;;;;;;4997823;28;20223;-74
2022/08/01 09:19:28;;;;;;;1.70;1.60;;;28.20;45.70;;;;;;4997698;28;20196;-75
2022/08/01 09:21:59;;;;;;;1.80;1.70;;;28.20;45.70;;;;;;4997019;28;20582;-73
2022/08/01 09:24:26;;;;;;;1.80;1.70;;;28.10;46.40;;;;;;4997727;28;20200;-73
2022/08/01 09:26:53;;;;;;;1.80;1.70;;;28.10;46.00;;;;;;4997456;28;20224;-73
2022/08/01 09:29:21;;;;;;;1.77;1.67;;;28.00;46.10;;;;;;4996877;28;20298;-73
2022/08/01 09:31:51;;;;;;;1.88;1.50;;;28.00;46.20;;;;;;4997335;28;20192;-73
2022/08/01 09:34:25;;;;;;;1.73;1.63;;;28.00;46.40;;;;;;4997416;28;20200;-73
2022/08/01 09:36:54;;;;;;;1.73;1.63;;;28.00;46.30;;;;;;5015163;28;20216;-73
2022/08/01 09:39:22;;;;;;;2.22;1.85;;;28.00;46.40;;;;;;4997310;28;20204;-73
2022/08/01 09:41:49;;;;;;;1.80;1.70;;;28.00;46.40;;;;;;4997419;28;20228;-73
2022/08/01 09:44:17;;;;;;;1.88;1.77;;;28.00;46.40;;;;;;4997132;28;20199;-73
2022/08/01 09:46:52;;;;;;;1.75;1.60;;;28.00;46.30;;;;;;4997281;28;20248;-73
2022/08/01 09:49:30;;;;;;;2.00;1.80;;;28.10;46.10;;;;;;4997100;28;20196;-73
2022/08/01 09:51:58;;;;;;;1.90;1.80;;;28.30;45.80;;;;;;4997956;28;20597;-73
2022/08/01 09:54:29;;;;;;;1.80;1.70;;;28.40;45.40;;;;;;4997739;28;20211;-73
2022/08/01 09:56:57;;;;;;;1.80;1.70;;;28.50;45.20;;;;;;4997274;28;20220;-73
2022/08/01 09:59:23;;;;;;;1.75;1.65;;;28.50;45.20;;;;;;4996882;28;20242;-73
2022/08/01 10:01:52;;;;;;;1.83;1.73;;;28.40;45.40;;;;;;4996830;28;20222;-74
2022/08/01 10:04:20;;;;;;;1.80;1.70;;;28.30;45.50;;;;;;4980561;28;20613;-74
2022/08/01 10:06:49;;;;;;;1.90;1.80;;;28.40;45.60;;;;;;5014329;28;20681;-74
2022/08/01 10:09:17;;;;;;;2.05;1.60;;;28.40;45.40;;;;;;4996825;28;20198;-74
2022/08/01 10:11:44;;;;;;;1.98;1.77;;;28.50;45.30;;;;;;4996827;28;20192;-74
2022/08/01 10:14:13;;;;;;;1.60;1.50;;;28.40;45.20;;;;;;4996808;28;20196;-74
2022/08/01 10:16:40;;;;;;;1.85;1.75;;;28.40;45.30;;;;;;4996666;28;20238;-74
2022/08/01 10:19:09;;;;;;;1.70;1.60;;;28.40;45.40;;;;;;4996714;28;20204;-74
2022/08/01 10:21:36;;;;;;;1.67;1.58;;;28.40;45.40;;;;;;4996735;28;20613;-74
2022/08/01 10:24:05;;;;;;;1.77;1.67;;;28.40;45.30;;;;;;4996651;28;20211;-74
2022/08/01 10:26:33;;;;;;;1.90;1.80;;;28.50;45.20;;;;;;4996881;28;20702;-74
2022/08/01 10:29:00;;;;;;;1.83;1.70;;;28.60;45.10;;;;;;4997481;28;20200;-74
2022/08/01 10:31:30;;;;;;;1.63;1.52;;;28.60;45.00;;;;;;4996568;28;20199;-74
2022/08/01 10:33:58;;;;;;;1.70;1.60;;;28.70;44.90;;;;;;4980477;28;20254;-74
2022/08/01 10:36:27;;;;;;;1.75;1.65;;;28.70;44.80;;;;;;4996453;28;20220;-74
2022/08/01 10:38:55;;;;;;;1.75;1.60;;;28.80;44.80;;;;;;4996585;28;20222;-74
2022/08/01 10:41:22;;;;;;;1.85;1.75;;;28.80;44.70;;;;;;4999480;28;20204;-74
2022/08/01 10:43:49;;;;;;;1.60;1.50;;;28.80;44.70;;;;;;5000545;28;20188;-74
2022/08/01 10:46:16;;;;;;;1.80;1.70;;;28.80;44.70;;;;;;5000592;28;20223;-74
2022/08/01 10:48:47;;;;;;;1.90;1.80;;;28.80;44.70;;;;;;5000953;28;20187;-74
2022/08/01 10:51:15;;;;;;;1.70;1.60;;;28.80;44.80;;;;;;5000369;28;20208;-74
2022/08/01 10:53:48;;;;;;;1.77;1.67;;;28.80;44.80;;;;;;4984449;28;20206;-74
2022/08/01 10:56:16;;;;;;;1.70;1.60;;;28.70;44.80;;;;;;5000366;28;20307;-74
2022/08/01 10:58:44;;;;;;;1.77;1.67;;;28.70;44.90;;;;;;5000106;28;20227;-74
2022/08/01 11:01:16;;;;;;;2.03;1.92;;;28.60;44.90;;;;;;5000145;28;20207;-74
2022/08/01 11:03:43;;;;;;;1.52;1.42;;;28.60;45.10;;;;;;4999914;28;20216;-74
2022/08/01 11:06:16;;;;;;;1.75;1.65;;;28.50;45.20;;;;;;4984156;28;20226;-74
2022/08/01 11:08:43;;;;;;;1.70;1.60;;;28.40;45.40;;;;;;5000007;28;20199;-74
2022/08/01 11:11:12;;;;;;;1.70;1.60;;;28.30;45.50;;;;;;4999521;28;20206;-74
2022/08/01 11:14:06;;;;;;;1.80;1.70;;;28.30;45.70;;;;;;4999940;28;20223;-74
2022/08/01 11:16:34;;;;;;;1.88;1.77;;;28.20;45.90;;;;;;4990877;28;20231;-74
2022/08/01 11:19:01;;;;;;;1.90;1.80;;;28.20;46.00;;;;;;4999834;28;20569;-74
2022/08/01 11:22:04;;;;;;;1.70;1.60;;;28.10;46.00;;;;;;4999654;28;20197;-74
2022/08/01 11:24:59;;;;;;;1.30;1.30;;;28.10;46.00;;;;;;4999656;28;20614;-74
2022/08/01 11:27:28;;;;;;;1.75;1.65;;;28.10;46.00;;;;;;4999736;28;20595;-74
2022/08/01 11:30:25;;;;;;;1.67;1.58;;;28.10;46.00;;;;;;4999502;28;20200;-74
2022/08/01 11:32:53;;;;;;;1.70;1.60;;;28.10;46.00;;;;;;4999554;28;20202;-73
2022/08/01 11:35:23;;;;;;;1.73;1.63;;;28.20;46.10;;;;;;4999499;28;20662;-72
2022/08/01 11:37:52;;;;;;;1.75;1.65;;;28.20;46.10;;;;;;4999403;28;20250;-73
2022/08/01 11:40:20;;;;;;;1.90;1.80;;;28.20;46.10;;;;;;4999537;28;20204;-73
2022/08/01 11:42:49;;;;;;;1.90;1.80;;;28.10;46.10;;;;;;4999271;28;20306;-73
2022/08/01 11:45:16;;;;;;;2.00;1.80;;;28.10;46.80;;;;;;4999712;28;20200;-73
2022/08/01 11:47:47;;;;;;;1.98;1.88;;;28.20;46.20;;;;;;4999465;28;20291;-73
2022/08/01 11:50:36;;;;;;;2.30;1.77;;;28.10;46.20;;;;;;4999306;28;20207;-74
2022/08/01 11:53:03;;;;;;;1.60;1.50;;;28.10;46.20;;;;;;4999272;28;20192;-74
2022/08/01 11:55:30;;;;;;;1.90;1.80;;;28.10;46.30;;;;;;4999232;28;20229;-74
2022/08/01 11:58:03;;;;;;;1.88;1.77;;;28.10;46.30;;;;;;4999994;28;20210;-74
2022/08/01 12:00:30;;;;;;;1.70;1.60;;;28.00;47.00;;;;;;4999338;28;20565;-74
2022/08/01 12:02:58;;;;;;;1.90;1.80;;;28.00;46.50;;;;;;4999448;28;20226;-74
2022/08/01 12:05:26;;;;;;;1.83;1.73;;;28.00;46.60;;;;;;4984234;28;20227;-74
2022/08/01 12:07:54;;;;;;;1.90;1.80;;;28.00;46.60;;;;;;5000656;28;20204;-74
2022/08/01 12:10:22;;;;;;;1.98;1.88;;;28.00;46.70;;;;;;4999026;28;20204;-74
2022/08/01 12:12:51;;;;;;;1.83;1.73;;;27.90;46.70;;;;;;4998802;28;20235;-74
2022/08/01 12:15:20;;;;;;;1.60;1.50;;;27.90;47.30;;;;;;4998670;28;20203;-74
2022/08/01 12:17:48;;;;;;;1.75;1.65;;;27.90;46.80;;;;;;4998808;28;20274;-74
2022/08/01 12:20:16;;;;;;;1.83;1.73;;;27.90;46.80;;;;;;4998630;28;20227;-74
2022/08/01 12:22:44;;;;;;;2.00;1.90;;;27.90;46.80;;;;;;4998641;28;20764;-73
2022/08/01 12:25:12;;;;;;;1.80;1.70;;;27.90;46.90;;;;;;4998670;28;20207;-74
2022/08/01 12:27:40;;;;;;;1.80;1.70;;;27.90;46.90;;;;;;4982852;28;20231;-75
2022/08/01 12:30:08;;;;;;;1.80;1.70;;;27.90;47.00;;;;;;4998581;28;20565;-74
2022/08/01 12:32:37;;;;;;;1.80;1.70;;;27.90;47.00;;;;;;4998680;28;20685;-74
2022/08/01 12:35:06;;;;;;;1.88;1.77;;;27.90;46.90;;;;;;5015959;28;20199;-74
2022/08/01 12:37:35;;;;;;;1.50;1.40;;;27.90;46.90;;;;;;4998507;28;20224;-74
2022/08/01 12:40:02;;;;;;;1.75;1.65;;;27.90;46.90;;;;;;4998168;28;20250;-74
2022/08/01 12:42:29;;;;;;;1.90;1.80;;;27.90;46.90;;;;;;4998505;28;20565;-74
2022/08/01 12:44:56;;;;;;;1.73;1.63;;;27.90;46.90;;;;;;4998412;28;20204;-74
2022/08/01 12:47:23;;;;;;;1.70;1.60;;;27.90;46.90;;;;;;4998222;28;20278;-74
2022/08/01 12:49:52;;;;;;;1.98;1.88;;;27.90;47.00;;;;;;4998135;28;20286;-74
2022/08/01 12:52:22;;;;;;;1.70;1.60;;;27.80;46.90;;;;;;4998149;28;20234;-74
2022/08/01 12:55:02;;;;;;;1.85;1.75;;;27.80;47.00;;;;;;4998358;28;20199;-74